createdAt,value
2018-06-02T00:01:11.587Z,4.13
2018-06-02T00:03:41.514Z,3.90
2018-06-02T00:06:11.023Z,4.40
2018-06-02T00:08:40.548Z,4.30
2018-06-02T00:11:10.152Z,4.30
2018-06-02T00:13:39.882Z,4.60
2018-06-02T00:16:09.398Z,4.30
2018-06-02T00:18:38.918Z,3.90
2018-06-02T00:21:08.517Z,3.97
2018-06-02T00:23:37.807Z,3.90
2018-06-02T00:26:07.319Z,3.80
2018-06-02T00:28:36.836Z,4.10
2018-06-02T00:31:06.067Z,3.60
2018-06-02T00:33:36.000Z,4.57
2018-06-02T00:36:05.509Z,3.90
2018-06-02T00:38:35.021Z,3.90
2018-06-02T00:41:04.555Z,4.00
2018-06-02T00:43:34.112Z,3.90
2018-06-02T00:46:04.031Z,4.20
2018-06-02T00:48:33.608Z,3.60
2018-06-02T00:51:03.138Z,3.83
2018-06-02T00:53:33.043Z,3.80
2018-06-02T00:56:02.967Z,3.47
2018-06-02T00:58:32.547Z,3.60
2018-06-02T01:01:02.083Z,3.90
2018-06-02T01:03:31.992Z,4.50
2018-06-02T01:06:01.999Z,4.03
2018-06-02T01:08:31.543Z,3.63
2018-06-02T01:11:01.103Z,3.57
2018-06-02T01:13:30.623Z,3.80
2018-06-02T01:16:00.241Z,3.67
2018-06-02T01:18:30.148Z,4.07
2018-06-02T01:21:00.082Z,3.63
2018-06-02T01:23:29.579Z,3.87
2018-06-02T01:25:59.489Z,3.70
2018-06-02T01:28:29.403Z,4.00
2018-06-02T01:30:59.087Z,3.70
2018-06-02T01:33:28.615Z,3.47
2018-06-02T01:35:58.522Z,3.60
2018-06-02T01:38:28.394Z,3.63
2018-06-02T01:40:57.916Z,3.80
2018-06-02T01:43:27.456Z,3.80
2018-06-02T01:45:57.381Z,3.60
2018-06-02T01:48:27.296Z,3.90
2018-06-02T01:50:57.228Z,3.80
2018-06-02T01:53:26.746Z,3.90
2018-06-02T01:55:56.277Z,3.73
2018-06-02T01:58:25.798Z,3.90
2018-06-02T02:00:55.304Z,3.87
2018-06-02T02:03:24.830Z,3.47
2018-06-02T02:05:54.740Z,3.90
2018-06-02T02:08:24.300Z,4.20
2018-06-02T02:10:53.859Z,4.03
2018-06-02T02:13:23.794Z,4.20
2018-06-02T02:15:53.305Z,3.80
2018-06-02T02:18:23.424Z,3.57
2018-06-02T02:20:52.953Z,4.10
2018-06-02T02:23:22.528Z,3.80
2018-06-02T02:25:52.063Z,4.00
2018-06-02T02:28:21.589Z,4.03
2018-06-02T02:30:51.152Z,3.93
2018-06-02T02:33:20.671Z,3.87
2018-06-02T02:35:50.198Z,3.67
2018-06-02T02:38:19.723Z,3.80
2018-06-02T02:40:49.270Z,4.00
2018-06-02T02:43:19.217Z,3.83
2018-06-02T02:45:48.919Z,3.97
2018-06-02T02:48:18.433Z,4.00
2018-06-02T02:50:47.959Z,4.30
2018-06-02T02:53:17.479Z,3.97
2018-06-02T02:55:47.017Z,3.97
2018-06-02T02:58:16.934Z,3.67
2018-06-02T03:00:46.446Z,4.10
2018-06-02T03:03:16.394Z,4.00
2018-06-02T03:05:45.937Z,3.53
2018-06-02T03:08:15.464Z,3.90
2018-06-02T03:10:45.402Z,3.77
2018-06-02T03:13:14.917Z,3.73
2018-06-02T03:15:44.114Z,3.70
2018-06-02T03:18:13.621Z,3.50
2018-06-02T03:20:43.133Z,3.87
2018-06-02T03:23:12.727Z,3.83
2018-06-02T03:25:42.882Z,4.17
2018-06-02T03:28:12.925Z,3.93
2018-06-02T03:30:42.503Z,3.93
2018-06-02T03:33:12.039Z,3.73
2018-06-02T03:35:41.558Z,3.97
2018-06-02T03:38:11.170Z,3.70
2018-06-02T03:40:41.085Z,3.93
2018-06-02T03:43:11.035Z,4.27
2018-06-02T03:45:41.376Z,4.50
2018-06-02T03:48:11.357Z,3.93
2018-06-02T03:50:40.894Z,3.57
2018-06-02T03:53:11.145Z,3.67
2018-06-02T03:55:40.654Z,3.27
2018-06-02T03:58:10.184Z,3.50
2018-06-02T04:00:40.106Z,3.73
2018-06-02T04:03:10.028Z,3.20
2018-06-02T04:05:39.554Z,3.03
2018-06-02T04:08:09.633Z,2.95
2018-06-02T04:10:39.716Z,3.20
2018-06-02T04:13:10.186Z,3.12
2018-06-02T04:15:40.270Z,3.40
2018-06-02T04:18:10.728Z,3.00
2018-06-02T04:20:40.842Z,3.05
2018-06-02T04:23:10.928Z,2.83
2018-06-02T04:25:41.401Z,2.97
2018-06-02T04:28:11.519Z,3.37
2018-06-02T04:30:41.591Z,2.95
2018-06-02T04:33:12.073Z,3.00
2018-06-02T04:35:42.179Z,3.05
2018-06-02T04:38:12.259Z,3.08
2018-06-02T04:40:42.735Z,3.10
2018-06-02T04:43:12.982Z,3.08
2018-06-02T04:45:43.070Z,3.40
2018-06-02T04:48:13.135Z,3.00
2018-06-02T04:50:43.323Z,2.87
2018-06-02T04:53:13.335Z,3.10
2018-06-02T04:55:43.154Z,3.30
2018-06-02T04:58:12.943Z,3.10
2018-06-02T05:00:42.727Z,3.00
2018-06-02T05:03:12.577Z,3.10
2018-06-02T05:05:42.829Z,3.37
2018-06-02T05:08:12.649Z,3.37
2018-06-02T05:10:42.447Z,3.20
2018-06-02T05:13:12.407Z,3.23
2018-06-02T05:15:42.228Z,2.90
2018-06-02T05:18:12.006Z,3.00
2018-06-02T05:20:42.196Z,3.00
2018-06-02T05:23:11.988Z,3.17
2018-06-02T05:25:41.776Z,2.90
2018-06-02T05:28:11.563Z,3.07
2018-06-02T05:30:41.826Z,2.90
2018-06-02T05:33:11.615Z,3.07
2018-06-02T05:35:41.811Z,3.17
2018-06-02T05:38:11.604Z,2.80
2018-06-02T05:40:41.868Z,2.90
2018-06-02T05:43:12.070Z,2.87
2018-06-02T05:45:41.877Z,2.70
2018-06-02T05:48:11.671Z,3.20
2018-06-02T05:50:41.457Z,3.20
2018-06-02T05:53:11.239Z,3.07
2018-06-02T05:55:41.423Z,2.83
2018-06-02T05:58:11.203Z,3.10
2018-06-02T06:00:41.317Z,3.30
2018-06-02T06:03:11.815Z,3.35
2018-06-02T06:05:41.907Z,3.33
2018-06-02T06:08:11.977Z,3.28
2018-06-02T06:10:42.455Z,3.42
2018-06-02T06:13:12.531Z,3.30
2018-06-02T06:15:42.617Z,3.87
2018-06-02T06:18:12.681Z,3.47
2018-06-02T06:20:42.846Z,4.18
2018-06-02T06:23:13.363Z,3.58
2018-06-02T06:25:43.443Z,4.05
2018-06-02T06:28:13.519Z,3.37
2018-06-02T06:30:43.745Z,3.80
2018-06-02T06:33:13.552Z,3.92
2018-06-02T06:35:43.625Z,3.90
2018-06-02T06:38:13.723Z,4.00
2018-06-02T06:40:44.201Z,3.75
2018-06-02T06:43:14.773Z,3.75
2018-06-02T06:45:45.272Z,3.78
2018-06-02T06:48:15.356Z,3.70
2018-06-02T06:50:45.446Z,4.10
2018-06-02T06:53:15.922Z,3.90
2018-06-02T06:55:46.012Z,3.35
2018-06-02T06:58:16.125Z,3.60
2018-06-02T07:00:46.592Z,3.72
2018-06-02T07:03:16.669Z,3.85
2018-06-02T07:05:47.200Z,4.03
2018-06-02T07:08:17.681Z,3.50
2018-06-02T07:10:47.760Z,3.15
2018-06-02T07:13:17.899Z,3.53
2018-06-02T07:15:48.006Z,3.72
2018-06-02T07:18:18.087Z,3.58
2018-06-02T07:20:48.198Z,3.67
2018-06-02T07:23:18.265Z,3.28
2018-06-02T07:25:48.364Z,3.65
2018-06-02T07:28:18.836Z,3.60
2018-06-02T07:30:49.090Z,4.65
2018-06-02T07:33:19.201Z,4.50
2018-06-02T07:35:49.289Z,4.05
2018-06-02T07:38:19.370Z,3.92
2018-06-02T07:40:49.854Z,3.50
2018-06-02T07:43:20.518Z,3.35
2018-06-02T07:45:50.626Z,3.65
2018-06-02T07:48:20.727Z,3.80
2018-06-02T07:50:50.814Z,4.00
2018-06-02T07:53:20.894Z,3.78
2018-06-02T07:55:51.576Z,3.97
2018-06-02T07:58:21.664Z,4.07
2018-06-02T08:00:52.163Z,4.12
2018-06-02T08:03:22.257Z,3.62
2018-06-02T08:05:52.343Z,3.50
2018-06-02T08:08:22.698Z,4.05
2018-06-02T08:10:52.980Z,3.62
2018-06-02T08:13:23.449Z,4.12
2018-06-02T08:15:53.570Z,3.78
2018-06-02T08:18:23.716Z,3.78
2018-06-02T08:20:53.814Z,3.62
2018-06-02T08:23:23.904Z,7.40
2018-06-02T08:25:53.986Z,4.25
2018-06-02T08:28:24.070Z,3.83
2018-06-02T08:30:54.148Z,3.67
2018-06-02T08:33:24.861Z,4.10
2018-06-02T08:35:55.870Z,4.03
2018-06-02T08:38:25.959Z,3.78
2018-06-02T08:40:56.040Z,3.72
2018-06-02T08:43:26.149Z,4.12
2018-06-02T08:45:56.322Z,4.50
2018-06-02T08:48:26.314Z,5.05
2018-06-02T08:50:56.444Z,5.10
2018-06-02T08:53:26.519Z,4.70
2018-06-02T08:55:56.606Z,4.80
2018-06-02T08:58:26.964Z,4.72
2018-06-02T09:00:57.076Z,5.25
2018-06-02T09:03:27.198Z,10.98
2018-06-02T09:05:57.288Z,4.45
2018-06-02T09:08:27.460Z,4.03
2018-06-02T09:10:57.588Z,4.57
2018-06-02T09:13:28.062Z,4.40
2018-06-02T09:15:58.153Z,4.70
2018-06-02T09:18:28.242Z,4.43
2018-06-02T09:20:58.393Z,3.83
2018-06-02T09:23:28.642Z,4.35
2018-06-02T09:25:58.755Z,3.80
2018-06-02T09:28:28.852Z,4.40
2018-06-02T09:30:59.226Z,4.22
2018-06-02T09:33:29.326Z,3.60
2018-06-02T09:35:59.415Z,3.65
2018-06-02T09:38:29.498Z,3.80
2018-06-02T09:40:59.596Z,4.18
2018-06-02T09:43:29.682Z,3.83
2018-06-02T09:45:59.792Z,4.18
2018-06-02T09:48:30.282Z,3.55
2018-06-02T09:51:00.600Z,3.83
2018-06-02T09:53:30.692Z,3.33
2018-06-02T09:56:00.462Z,3.45
2018-06-02T09:58:30.933Z,3.53
2018-06-02T10:01:01.027Z,3.28
2018-06-02T10:03:31.500Z,3.12
2018-06-02T10:06:01.607Z,3.00
2018-06-02T10:08:31.696Z,2.70
2018-06-02T10:11:01.789Z,3.30
2018-06-02T10:13:32.260Z,3.50
2018-06-02T10:16:02.369Z,3.50
2018-06-02T10:18:32.461Z,3.40
2018-06-02T10:21:02.961Z,3.42
2018-06-02T10:23:33.082Z,2.70
2018-06-02T10:26:03.208Z,2.67
2018-06-02T10:28:33.306Z,2.92
2018-06-02T10:31:03.412Z,2.50
2018-06-02T10:33:33.519Z,2.30
2018-06-02T10:36:03.624Z,2.53
2018-06-02T10:38:34.154Z,3.20
2018-06-02T10:41:04.645Z,2.65
2018-06-02T10:43:34.710Z,2.50
2018-06-02T10:46:05.183Z,2.60
2018-06-02T10:48:35.266Z,2.80
2018-06-02T10:51:05.033Z,2.60
2018-06-02T10:53:35.112Z,2.83
2018-06-02T10:56:04.649Z,2.58
2018-06-02T10:58:34.730Z,2.37
2018-06-02T11:01:04.807Z,3.05
2018-06-02T11:03:34.920Z,2.60
2018-06-02T11:06:05.207Z,2.45
2018-06-02T11:08:35.360Z,2.65
2018-06-02T11:11:05.203Z,2.70
2018-06-02T11:13:35.274Z,2.60
2018-06-02T11:16:05.363Z,2.70
2018-06-02T11:18:35.431Z,2.20
2018-06-02T11:21:05.507Z,2.47
2018-06-02T11:23:35.736Z,2.78
2018-06-02T11:26:05.479Z,2.72
2018-06-02T11:28:35.584Z,2.30
2018-06-02T11:31:05.829Z,2.20
2018-06-02T11:33:36.250Z,2.60
2018-06-02T11:36:06.375Z,2.55
2018-06-02T11:38:36.766Z,2.40
2018-06-02T11:41:06.846Z,2.60
2018-06-02T11:43:37.366Z,2.58
2018-06-02T11:46:07.841Z,2.40
2018-06-02T11:48:37.968Z,2.80
2018-06-02T11:51:08.062Z,2.50
2018-06-02T11:53:37.845Z,2.12
2018-06-02T11:56:08.309Z,2.40
2018-06-02T11:58:38.435Z,2.55
2018-06-02T12:01:08.553Z,2.60
2018-06-02T12:03:38.642Z,2.22
2018-06-02T12:06:09.129Z,2.33
2018-06-02T12:08:39.232Z,2.50
2018-06-02T12:11:09.415Z,2.35
2018-06-02T12:13:39.517Z,2.30
2018-06-02T12:16:09.621Z,2.53
2018-06-02T12:18:39.729Z,2.30
2018-06-02T12:21:09.845Z,2.67
2018-06-02T12:23:39.973Z,2.70
2018-06-02T12:26:10.385Z,2.33
2018-06-02T12:28:40.477Z,2.42
2018-06-02T12:31:10.565Z,2.42
2018-06-02T12:33:40.681Z,2.05
2018-06-02T12:36:10.772Z,2.33
2018-06-02T12:38:40.872Z,2.58
2018-06-02T12:41:10.966Z,2.37
2018-06-02T12:43:41.071Z,2.30
2018-06-02T12:46:51.211Z,2.00
2018-06-02T12:49:21.629Z,2.55
2018-06-02T12:51:51.731Z,2.12
2018-06-02T12:54:21.808Z,2.05
2018-06-02T12:56:52.843Z,2.50
2018-06-02T12:59:23.349Z,2.45
2018-06-02T13:01:53.424Z,2.10
2018-06-02T13:04:23.495Z,2.60
2018-06-02T13:06:53.583Z,2.10
2018-06-02T13:09:23.643Z,2.30
2018-06-02T13:11:54.159Z,2.08
2018-06-02T13:14:24.679Z,2.20
2018-06-02T13:16:54.795Z,2.00
2018-06-02T13:19:24.887Z,2.15
2018-06-02T13:21:54.951Z,2.03
2018-06-02T13:24:25.071Z,2.20
2018-06-02T13:33:43.019Z,2.28
2018-06-02T13:36:13.097Z,2.40
2018-06-02T13:38:43.201Z,2.03
2018-06-02T13:41:13.663Z,2.22
2018-06-02T13:43:43.474Z,2.13
2018-06-02T13:46:13.312Z,2.50
2018-06-02T13:48:43.136Z,2.30
2018-06-02T13:51:12.971Z,2.40
2018-06-02T13:53:42.781Z,2.10
2018-06-02T13:56:14.788Z,2.42
2018-06-02T13:58:44.932Z,2.30
2018-06-02T14:01:15.136Z,2.00
2018-06-02T14:03:45.210Z,2.12
2018-06-02T14:06:15.292Z,2.20
2018-06-02T14:08:45.434Z,2.30
2018-06-02T14:11:15.512Z,2.00
2018-06-02T14:13:45.600Z,2.37
2018-06-02T14:16:16.111Z,1.90
2018-06-02T14:18:46.189Z,2.03
2018-06-02T14:21:16.469Z,2.10
2018-06-02T14:23:46.941Z,2.37
2018-06-02T14:26:17.091Z,2.12
2018-06-02T14:28:47.159Z,2.28
2018-06-02T14:31:17.254Z,2.00
2018-06-02T14:33:47.780Z,2.22
2018-06-02T14:36:17.909Z,1.90
2018-06-02T14:38:47.741Z,2.40
2018-06-02T14:41:17.284Z,1.77
2018-06-02T14:43:47.550Z,2.10
2018-06-02T14:46:17.355Z,2.10
2018-06-02T14:48:46.934Z,1.83
2018-06-02T14:51:17.088Z,2.33
2018-06-02T14:53:46.916Z,2.17
2018-06-02T14:56:16.710Z,2.23
2018-06-02T14:58:46.517Z,1.80
2018-06-02T15:01:16.294Z,1.60
2018-06-02T15:03:46.159Z,1.90
2018-06-02T15:06:16.165Z,2.17
2018-06-02T15:08:45.968Z,1.87
2018-06-02T15:11:16.378Z,1.73
2018-06-02T15:13:46.321Z,1.93
2018-06-02T15:16:16.503Z,1.70
2018-06-02T15:18:48.190Z,3.33
2018-06-02T15:21:18.272Z,2.37
2018-06-02T15:23:48.387Z,1.87
2018-06-02T15:26:18.536Z,2.42
2018-06-02T15:28:48.765Z,2.20
2018-06-02T15:31:18.872Z,1.75
2018-06-02T15:33:49.380Z,4.20
2018-06-02T15:36:19.491Z,1.90
2018-06-02T15:38:49.294Z,1.57
2018-06-02T15:41:19.091Z,1.93
2018-06-02T15:43:49.575Z,1.90
2018-06-02T15:46:19.656Z,1.55
2018-06-02T15:48:49.804Z,1.60
2018-06-02T15:51:19.900Z,1.65
2018-06-02T15:53:49.691Z,1.50
2018-06-02T15:56:19.548Z,1.60
2018-06-02T15:58:49.339Z,1.70
2018-06-02T16:01:19.176Z,1.40
2018-06-02T16:03:48.964Z,1.43
2018-06-02T16:06:18.760Z,1.63
2018-06-02T16:08:48.568Z,1.50
2018-06-02T16:11:19.052Z,1.60
2018-06-02T16:13:49.154Z,1.33
2018-06-02T16:16:18.944Z,1.40
2018-06-02T16:18:49.038Z,1.70
2018-06-02T16:21:18.832Z,1.27
2018-06-02T16:23:48.972Z,1.65
2018-06-02T16:26:19.756Z,1.70
2018-06-02T16:28:49.561Z,1.37
2018-06-02T16:31:19.653Z,1.52
2018-06-02T16:33:49.763Z,1.60
2018-06-02T16:36:19.579Z,1.20
2018-06-02T16:38:50.078Z,1.67
2018-06-02T16:41:20.375Z,1.57
2018-06-02T16:43:50.165Z,1.40
2018-06-02T16:46:20.264Z,1.92
2018-06-02T16:48:50.768Z,1.58
2018-06-02T16:51:20.832Z,1.87
2018-06-02T16:53:50.944Z,1.92
2018-06-02T16:56:21.461Z,1.45
2018-06-02T16:58:51.965Z,1.50
2018-06-02T17:01:22.026Z,1.70
2018-06-02T17:03:52.106Z,1.80
2018-06-02T17:06:22.226Z,1.80
2018-06-02T17:08:52.735Z,1.50
2018-06-02T17:11:22.896Z,1.50
2018-06-02T17:13:53.405Z,1.80
2018-06-02T17:16:23.527Z,1.80
2018-06-02T17:18:53.610Z,1.30
2018-06-02T17:21:23.719Z,1.40
2018-06-02T17:23:53.934Z,1.85
2018-06-02T17:26:24.040Z,1.35
2018-06-02T17:28:54.514Z,1.40
2018-06-02T17:31:24.591Z,1.30
2018-06-02T17:33:54.680Z,1.85
2018-06-02T17:36:24.754Z,1.35
2018-06-02T17:38:54.837Z,1.48
2018-06-02T17:41:25.337Z,1.25
2018-06-02T17:43:55.590Z,1.77
2018-06-02T17:46:26.080Z,1.50
2018-06-02T17:48:56.161Z,1.45
2018-06-02T17:51:27.171Z,1.52
2018-06-02T17:53:57.424Z,1.37
2018-06-02T17:56:27.766Z,1.27
2018-06-02T17:58:57.843Z,1.73
2018-06-02T18:01:28.341Z,1.48
2018-06-02T18:03:58.816Z,1.00
2018-06-02T18:06:28.902Z,1.90
2018-06-02T18:08:58.992Z,1.33
2018-06-02T18:11:29.102Z,1.70
2018-06-02T18:13:59.228Z,2.30
2018-06-02T18:16:29.342Z,1.62
2018-06-02T18:18:59.449Z,2.10
2018-06-02T18:21:29.735Z,2.30
2018-06-02T18:23:59.875Z,2.40
2018-06-02T18:26:30.046Z,2.45
2018-06-02T18:29:00.143Z,2.67
2018-06-02T18:31:30.429Z,2.62
2018-06-02T18:34:00.916Z,2.53
2018-06-02T18:36:31.472Z,2.60
2018-06-02T18:39:01.535Z,2.33
2018-06-02T18:41:31.684Z,2.55
2018-06-02T18:44:01.951Z,2.42
2018-06-02T18:46:32.493Z,2.20
2018-06-02T18:49:02.575Z,2.53
2018-06-02T18:51:32.943Z,2.20
2018-06-02T18:54:03.034Z,2.58
2018-06-02T18:56:33.516Z,2.08
2018-06-02T18:59:03.686Z,1.98
2018-06-02T19:01:34.156Z,1.92
2018-06-02T19:04:04.241Z,2.10
2018-06-02T19:06:34.736Z,2.40
2018-06-02T19:09:04.007Z,2.70
2018-06-02T19:11:34.072Z,2.33
2018-06-02T19:14:04.175Z,2.30
2018-06-02T19:16:34.255Z,2.53
2018-06-02T19:19:04.416Z,2.42
2018-06-02T19:21:34.528Z,2.62
2018-06-02T19:24:04.662Z,3.17
2018-06-02T19:26:34.975Z,2.85
2018-06-02T19:29:05.046Z,2.62
2018-06-02T19:31:35.132Z,2.70
2018-06-02T19:34:05.234Z,2.20
2018-06-02T19:36:35.350Z,2.35
2018-06-02T19:39:04.520Z,2.30
2018-06-02T19:41:34.596Z,2.42
2018-06-02T19:44:05.089Z,2.83
2018-06-02T19:46:35.170Z,2.75
2018-06-02T19:49:05.318Z,2.47
2018-06-02T19:51:35.386Z,2.80
2018-06-02T19:54:05.524Z,2.75
2018-06-02T19:56:35.641Z,2.70
2018-06-02T19:59:41.408Z,2.70
2018-06-02T20:02:11.800Z,2.72
2018-06-02T20:04:42.548Z,2.80
2018-06-02T20:07:13.084Z,3.42
2018-06-02T20:09:43.557Z,3.42
2018-06-02T20:12:13.891Z,3.12
2018-06-02T20:14:44.297Z,3.17
2018-06-02T20:17:15.132Z,3.25
2018-06-02T20:19:45.495Z,3.20
2018-06-02T20:22:15.898Z,3.02
2018-06-02T20:24:46.299Z,3.00
2018-06-02T20:27:16.747Z,2.80
2018-06-02T20:29:47.217Z,3.30
2018-06-02T20:32:17.629Z,3.10
2018-06-02T20:34:48.065Z,2.80
2018-06-02T20:37:18.418Z,2.67
2018-06-02T20:39:48.758Z,3.12
2018-06-02T20:42:19.195Z,2.83
2018-06-02T20:44:50.021Z,2.60
2018-06-02T20:47:20.602Z,2.45
2018-06-02T20:49:51.058Z,2.72
2018-06-02T20:52:21.437Z,3.72
2018-06-02T20:54:51.826Z,3.00
2018-06-02T20:57:22.228Z,2.87
2018-06-02T20:59:52.718Z,2.90
2018-06-02T21:03:52.485Z,3.42
2018-06-02T21:06:22.858Z,2.80
2018-06-02T21:08:53.256Z,2.87
2018-06-02T21:11:24.005Z,2.62
2018-06-02T21:13:54.347Z,2.40
2018-06-02T21:16:24.977Z,2.60
2018-06-02T21:18:55.681Z,2.52
2018-06-02T21:21:26.671Z,2.50
2018-06-02T21:23:57.033Z,2.60
2018-06-02T21:26:27.778Z,2.90
2018-06-02T21:28:58.107Z,2.80
2018-06-02T21:31:28.395Z,2.87
2018-06-02T21:33:58.721Z,2.90
2018-06-02T21:36:29.139Z,2.65
2018-06-02T21:38:59.427Z,2.75
2018-06-02T21:41:29.821Z,2.60
2018-06-02T21:44:00.247Z,2.50
2018-06-02T21:46:30.665Z,2.80
2018-06-02T21:49:01.009Z,2.90
2018-06-02T21:51:31.926Z,2.60
2018-06-02T21:54:02.323Z,2.85
2018-06-02T21:56:32.780Z,3.58
2018-06-02T21:59:03.295Z,4.37
2018-06-02T22:01:33.689Z,3.87
2018-06-02T22:04:04.679Z,3.83
2018-06-02T22:06:35.118Z,3.85
2018-06-02T22:09:06.087Z,3.80
2018-06-02T22:11:36.495Z,3.60
2018-06-02T22:14:07.315Z,3.30
2018-06-02T22:16:37.693Z,3.30
2018-06-02T22:19:08.021Z,3.55
2018-06-02T22:21:38.323Z,3.25
2018-06-02T22:24:08.733Z,3.42
2018-06-02T22:26:39.113Z,3.47
2018-06-02T22:29:09.471Z,3.20
2018-06-02T22:31:39.613Z,3.12
2018-06-02T22:34:09.993Z,3.35
2018-06-02T22:36:40.341Z,3.17
2018-06-02T22:39:10.669Z,3.25
2018-06-02T22:41:40.560Z,3.30
2018-06-02T22:44:11.693Z,3.02
2018-06-02T22:46:42.026Z,2.98
2018-06-02T22:49:12.385Z,3.35
2018-06-02T22:51:58.626Z,3.50
2018-06-02T22:54:29.503Z,3.00
2018-06-02T22:57:00.131Z,3.42
2018-06-02T22:59:31.683Z,3.55
2018-06-02T23:02:01.843Z,4.03
2018-06-02T23:04:32.673Z,3.67
2018-06-02T23:07:03.411Z,3.25
2018-06-02T23:09:33.790Z,3.25
2018-06-02T23:12:04.343Z,3.55
2018-06-02T23:14:34.701Z,3.20
2018-06-02T23:17:05.143Z,3.67
2018-06-02T23:19:34.945Z,3.70
2018-06-02T23:22:05.746Z,4.62
2018-06-02T23:24:35.545Z,4.33
2018-06-02T23:27:05.459Z,4.33
2018-06-02T23:29:35.290Z,4.47
2018-06-02T23:32:05.420Z,4.20
2018-06-02T23:34:35.227Z,4.47
2018-06-02T23:37:05.108Z,3.90
2018-06-02T23:39:34.914Z,4.00
2018-06-02T23:42:04.691Z,3.47
2018-06-02T23:44:35.114Z,4.20
2018-06-02T23:47:05.042Z,4.23
2018-06-02T23:49:34.906Z,3.97
2018-06-02T23:52:04.751Z,4.27
2018-06-02T23:54:34.880Z,4.57
2018-06-02T23:57:04.680Z,4.47
2018-06-02T23:59:34.498Z,4.37
